1881 Hurricane NOT_NAMED (1881313N20303)


IBTrACS version v04r00. Visit IBTrACS website for data access.
Please direct all questions to the IBTrACS Q and A forum

Storm track - Intensity - Wind Radii - Intensity Data - Source Data - All data

Summary Information

Storm ID 1881313N20303
Start Nov 9 00Z
Max Intensity 65 kt (Nov 10 06Z)
End Nov 18 12Z
ATCF IDs
Track status Best track data.

Storm track plot

Map of storm track

Intensity plots

Map of storm track

Radial wind information

No radial wind information for this storm


Position and Intensity Table

BASIN ISO_TIME_________ NATURE LAT LON MLC WIND
degrees north degrees east kts
NA 1881-11-09 00:00:00 TS 20.00 -57.00 30
NA 03:00:00 TS 20.01 -57.00 32
NA 06:00:00 TS 20.00 -57.00 35
NA 09:00:00 TS 19.98 -57.00 40
NA 12:00:00 TS 20.00 -57.00 45
NA 15:00:00 TS 20.14 -57.00 50
NA 18:00:00 TS 20.30 -57.00 55
NA 21:00:00 TS 20.40 -57.00 57
NA 1881-11-10 00:00:00 TS 20.50 -57.00 60
NA 03:00:00 TS 20.65 -57.00 62
NA 06:00:00 TS 20.80 -57.00 65
NA 09:00:00 TS 20.88 -57.00 65
NA 12:00:00 TS 21.00 -57.00 65
NA 15:00:00 TS 21.23 -57.01 65
NA 18:00:00 TS 21.50 -57.00 65
NA 21:00:00 TS 21.75 -56.96 60
NA 1881-11-11 00:00:00 TS 22.00 -56.90 55
NA 03:00:00 TS 22.25 -56.81 55
NA 06:00:00 TS 22.50 -56.70 55
NA 09:00:00 TS 22.76 -56.62 55
NA 12:00:00 TS 23.00 -56.50 55
NA 15:00:00 TS 23.21 -56.27 55
NA 18:00:00 TS 23.40 -56.00 55
NA 21:00:00 TS 23.60 -55.75 50
NA 1881-11-12 00:00:00 TS 23.80 -55.50 45
NA 03:00:00 TS 24.01 -55.25 45
NA 06:00:00 TS 24.20 -55.00 45
NA 09:00:00 TS 24.39 -54.79 45
NA 12:00:00 TS 24.50 -54.50 45
NA 15:00:00 TS 24.48 -54.04 45
NA 18:00:00 TS 24.40 -53.50 45
NA 21:00:00 TS 24.39 -53.00 40
NA 1881-11-13 00:00:00 TS 24.30 -52.50 35
NA 03:00:00 TS 24.04 -52.00 35
NA 06:00:00 TS 23.70 -51.50 35
NA 09:00:00 TS 23.38 -50.86 35
NA 12:00:00 TS 23.00 -50.50 35
NA 15:00:00 TS 22.52 -50.82 35
NA 18:00:00 TS 22.00 -51.40 35
NA 21:00:00 TS 21.50 -51.80 35
NA 1881-11-14 00:00:00 TS 21.00 -52.20 35
NA 03:00:00 TS 20.50 -52.64 35
NA 06:00:00 TS 20.00 -53.10 35
NA 09:00:00 TS 19.37 -53.60 35
NA 12:00:00 TS 19.00 -54.00 35
NA 15:00:00 TS 19.27 -54.16 35
NA 18:00:00 TS 19.80 -54.20 35
NA 21:00:00 TS 20.15 -54.26 35
NA 1881-11-15 00:00:00 TS 20.50 -54.30 35
NA 03:00:00 TS 20.90 -54.35 35
NA 06:00:00 TS 21.30 -54.40 35
NA 09:00:00 TS 21.65 -54.52 35
NA 12:00:00 TS 22.00 -54.50 35
NA 15:00:00 TS 22.40 -54.16 35
NA 18:00:00 TS 22.80 -53.70 35
NA 21:00:00 TS 23.15 -53.35 37
NA 1881-11-16 00:00:00 TS 23.50 -53.00 40
NA 03:00:00 TS 23.90 -52.60 42
NA 06:00:00 TS 24.30 -52.20 45
NA 09:00:00 TS 24.66 -51.94 47
NA 12:00:00 TS 25.00 -51.50 50
NA 15:00:00 TS 25.36 -50.60 50
NA 18:00:00 TS 25.70 -49.50 50
NA 21:00:00 TS 26.01 -48.50 50
NA 1881-11-17 00:00:00 TS 26.30 -47.50 50
NA 03:00:00 TS 26.60 -46.50 50
NA 06:00:00 TS 26.90 -45.50 50
NA 09:00:00 TS 27.13 -44.52 47
NA 12:00:00 TS 27.50 -43.50 45
NA 15:00:00 TS 28.18 -42.37 45
NA 18:00:00 TS 29.00 -41.20 45
NA 21:00:00 TS 29.57 -40.21 45
NA 1881-11-18 00:00:00 TS 30.50 -39.00 45
NA 03:00:00 TS 32.24 -37.14 42
NA 06:00:00 ET 34.30 -35.00 40
NA 09:00:00 ET 36.22 -32.97 37
NA 12:00:00 ET 38.00 -31.00 35

Source Information

Agency Information
USA
TOKYO
CMA
HKO
NEWDELHI
REUNION
BOM
NADI
WELLINGTON
DS824
TD9636
TD9635
NEUMANN
MLC

All available IBTrACS Data

SEASON BASIN SUBBASIN ISO_TIME_________ NATURE LAT LON DIST2LAND LANDFALL IFLAG USA SSHS MLC LAT MLC LON MLC CLASS MLC WIND STORM SPEED STORM DIR
Year degrees north degrees east km km 1 degrees north degrees east kts kts degrees
1881 NA NA 1881-11-09 00:00:00 TS 20.00 -57.00 920 920 _____________O -1 20.00 -57.00 TD 30 0 0
1881 NA NA 03:00:00 TS 20.01 -57.00 920 920 _____________P -1 20.01 -57.00 TD 32 0 0
1881 NA NA 06:00:00 TS 20.00 -57.00 920 920 _____________O -1 20.00 -57.00 TS 35 0 139
1881 NA NA 09:00:00 TS 19.98 -57.00 920 920 _____________P -1 19.98 -57.00 TS 40 0 0
1881 NA NA 12:00:00 TS 20.00 -57.00 920 920 _____________O -1 20.00 -57.00 TS 45 2 6
1881 NA NA 15:00:00 TS 20.14 -57.00 922 922 _____________P -1 20.14 -57.00 TS 50 3 0
1881 NA NA 18:00:00 TS 20.30 -57.00 926 926 _____________O -1 20.30 -57.00 TS 55 3 3
1881 NA NA 21:00:00 TS 20.40 -57.00 929 929 _____________P -1 20.40 -57.00 TS 57 2 8
1881 NA NA 1881-11-10 00:00:00 TS 20.50 -57.00 931 931 _____________O -1 20.50 -57.00 TS 60 3 2
1881 NA NA 03:00:00 TS 20.65 -57.00 936 934 _____________P -1 20.65 -57.00 TS 62 3 0
1881 NA NA 06:00:00 TS 20.80 -57.00 939 939 _____________O -1 20.80 -57.00 HU 65 2 0
1881 NA NA 09:00:00 TS 20.88 -57.00 942 942 _____________P -1 20.88 -57.00 HU 65 2 8
1881 NA NA 12:00:00 TS 21.00 -57.00 945 945 _____________O -1 21.00 -57.00 HU 65 3 358
1881 NA NA 15:00:00 TS 21.23 -57.01 952 952 _____________P -1 21.23 -57.01 HU 65 5 2
1881 NA NA 18:00:00 TS 21.50 -57.00 963 963 _____________O -1 21.50 -57.00 HU 65 5 3
1881 NA NA 21:00:00 TS 21.75 -56.96 970 970 _____________P -1 21.75 -56.96 HU 60 5 11
1881 NA NA 1881-11-11 00:00:00 TS 22.00 -56.90 992 992 _____________O -1 22.00 -56.90 TS 55 5 17
1881 NA NA 03:00:00 TS 22.25 -56.81 1015 1015 _____________P -1 22.25 -56.81 TS 55 5 20
1881 NA NA 06:00:00 TS 22.50 -56.70 1033 1033 _____________O -1 22.50 -56.70 TS 55 5 19
1881 NA NA 09:00:00 TS 22.76 -56.62 1057 1057 _____________P -1 22.76 -56.62 TS 55 5 20
1881 NA NA 12:00:00 TS 23.00 -56.50 1076 1076 _____________O -1 23.00 -56.50 TS 55 6 35
1881 NA NA 15:00:00 TS 23.21 -56.27 1105 1105 _____________P -1 23.21 -56.27 TS 55 6 49
1881 NA NA 18:00:00 TS 23.40 -56.00 1142 1142 _____________O -1 23.40 -56.00 TS 55 6 51
1881 NA NA 21:00:00 TS 23.60 -55.75 1180 1180 _____________P -1 23.60 -55.75 TS 50 6 49
1881 NA NA 1881-11-12 00:00:00 TS 23.80 -55.50 1208 1208 _____________O -1 23.80 -55.50 TS 45 6 48
1881 NA NA 03:00:00 TS 24.01 -55.25 1245 1245 _____________P -1 24.01 -55.25 TS 45 6 49
1881 NA NA 06:00:00 TS 24.20 -55.00 1274 1274 _____________O -1 24.20 -55.00 TS 45 6 48
1881 NA NA 09:00:00 TS 24.39 -54.79 1302 1302 _____________P -1 24.39 -54.79 TS 45 5 57
1881 NA NA 12:00:00 TS 24.50 -54.50 1334 1334 _____________O -1 24.50 -54.50 TS 45 7 82
1881 NA NA 15:00:00 TS 24.48 -54.04 1379 1379 _____________P -1 24.48 -54.04 TS 45 9 96
1881 NA NA 18:00:00 TS 24.40 -53.50 1419 1419 _____________O -1 24.40 -53.50 TS 45 9 96
1881 NA NA 21:00:00 TS 24.39 -53.00 1465 1465 _____________P -1 24.39 -53.00 TS 40 9 96
1881 NA NA 1881-11-13 00:00:00 TS 24.30 -52.50 1507 1507 _____________O -1 24.30 -52.50 TS 35 10 111
1881 NA NA 03:00:00 TS 24.04 -52.00 1541 1541 _____________P -1 24.04 -52.00 TS 35 11 123
1881 NA NA 06:00:00 TS 23.70 -51.50 1577 1577 _____________O -1 23.70 -51.50 TS 35 12 122
1881 NA NA 09:00:00 TS 23.38 -50.86 1624 1624 _____________P -1 23.38 -50.86 TS 35 12 127
1881 NA NA 12:00:00 TS 23.00 -50.50 1651 1610 _____________O -1 23.00 -50.50 TS 35 9 177
1881 NA NA 15:00:00 TS 22.52 -50.82 1607 1534 _____________P -1 22.52 -50.82 TS 35 13 220
1881 NA NA 18:00:00 TS 22.00 -51.40 1534 1482 _____________O -1 22.00 -51.40 TS 35 14 222
1881 NA NA 21:00:00 TS 21.50 -51.80 1482 1432 _____________P -1 21.50 -51.80 TS 35 13 217
1881 NA NA 1881-11-14 00:00:00 TS 21.00 -52.20 1432 1382 _____________O -1 21.00 -52.20 TS 35 13 218
1881 NA NA 03:00:00 TS 20.50 -52.64 1382 1324 _____________P -1 20.50 -52.64 TS 35 13 220
1881 NA NA 06:00:00 TS 20.00 -53.10 1324 1256 _____________O -1 20.00 -53.10 TS 35 15 219
1881 NA NA 09:00:00 TS 19.37 -53.60 1256 1195 _____________P -1 19.37 -53.60 TS 35 13 220
1881 NA NA 12:00:00 TS 19.00 -54.00 1195 1188 _____________O -1 19.00 -54.00 TS 35 5 260
1881 NA NA 15:00:00 TS 19.27 -54.16 1203 1203 _____________P -1 19.27 -54.16 TS 35 8 347
1881 NA NA 18:00:00 TS 19.80 -54.20 1207 1201 _____________O -1 19.80 -54.20 TS 35 9 354
1881 NA NA 21:00:00 TS 20.15 -54.26 1201 1201 _____________P -1 20.15 -54.26 TS 35 7 352
1881 NA NA 1881-11-15 00:00:00 TS 20.50 -54.30 1207 1207 _____________O -1 20.50 -54.30 TS 35 8 354
1881 NA NA 03:00:00 TS 20.90 -54.35 1205 1205 _____________P -1 20.90 -54.35 TS 35 8 353
1881 NA NA 06:00:00 TS 21.30 -54.40 1215 1210 _____________O -1 21.30 -54.40 TS 35 8 349
1881 NA NA 09:00:00 TS 21.65 -54.52 1213 1213 _____________P -1 21.65 -54.52 TS 35 7 352
1881 NA NA 12:00:00 TS 22.00 -54.50 1225 1225 _____________O -1 22.00 -54.50 TS 35 8 24
1881 NA NA 15:00:00 TS 22.40 -54.16 1268 1268 _____________P -1 22.40 -54.16 TS 35 11 43
1881 NA NA 18:00:00 TS 22.80 -53.70 1331 1331 _____________O -1 22.80 -53.70 TS 35 11 45
1881 NA NA 21:00:00 TS 23.15 -53.35 1381 1381 _____________P -1 23.15 -53.35 TS 37 10 43
1881 NA NA 1881-11-16 00:00:00 TS 23.50 -53.00 1426 1426 _____________O -1 23.50 -53.00 TS 40 10 43
1881 NA NA 03:00:00 TS 23.90 -52.60 1480 1480 _____________P -1 23.90 -52.60 TS 42 11 42
1881 NA NA 06:00:00 TS 24.30 -52.20 1535 1535 _____________O -1 24.30 -52.20 TS 45 10 39
1881 NA NA 09:00:00 TS 24.66 -51.94 1580 1580 _____________P -1 24.66 -51.94 TS 47 9 42
1881 NA NA 12:00:00 TS 25.00 -51.50 1631 1631 _____________O -1 25.00 -51.50 TS 50 14 60
1881 NA NA 15:00:00 TS 25.36 -50.60 1731 1731 _____________P -1 25.36 -50.60 TS 50 19 69
1881 NA NA 18:00:00 TS 25.70 -49.50 1846 1846 _____________O -1 25.70 -49.50 TS 50 20 71
1881 NA NA 21:00:00 TS 26.01 -48.50 1951 1951 _____________P -1 26.01 -48.50 TS 50 19 72
1881 NA NA 1881-11-17 00:00:00 TS 26.30 -47.50 2056 2056 _____________O -1 26.30 -47.50 TS 50 19 72
1881 NA NA 03:00:00 TS 26.60 -46.50 2161 2161 _____________P -1 26.60 -46.50 TS 50 19 71
1881 NA NA 06:00:00 TS 26.90 -45.50 2266 2266 _____________O -1 26.90 -45.50 TS 50 18 73
1881 NA NA 09:00:00 TS 27.13 -44.52 2301 2286 _____________P -1 27.13 -44.52 TS 47 19 71
1881 NA NA 12:00:00 TS 27.50 -43.50 2289 2257 _____________O -1 27.50 -43.50 TS 45 22 61
1881 NA NA 15:00:00 TS 28.18 -42.37 2254 2214 _____________P -1 28.18 -42.37 TS 45 25 54
1881 NA NA 18:00:00 TS 29.00 -41.20 2218 2201 _____________O -1 29.00 -41.20 TS 45 23 54
1881 NA NA 21:00:00 TS 29.57 -40.21 2200 2167 _____________P -1 29.57 -40.21 TS 45 24 52
1881 NA NA 1881-11-18 00:00:00 TS 30.50 -39.00 2158 2009 _____________O -1 30.50 -39.00 TS 45 38 45
1881 NA NA 03:00:00 TS 32.24 -37.14 1991 1853 _____________P -1 32.24 -37.14 TS 42 51 42
1881 NA NA 06:00:00 ET 34.30 -35.00 1848 1757 _____________O -1 34.30 -35.00 EX 40 53 41
1881 NA NA 09:00:00 ET 36.22 -32.97 1753 1703 _____________P -1 36.22 -32.97 EX 37 49 41
1881 NA NA 12:00:00 ET 38.00 -31.00 1702 _____________O -1 38.00 -31.00 EX 35 47 41